Terminal Aerodrome Forecast
Issued by NWS Twin Cities, MN

Home | Current Version | Previous Version | Graphics & Text | Print | Product List | Glossary On
Versions: 1 2 3 4 5 6 7 8 9 10 11 12 13 14 15 16 17
000
FTUS43 KMPX 291137
TAFEAU
TAF
KEAU 291137Z 2912/3012 15003KT P6SM SCT030
      TEMPO 2912/2913 5SM BR BKN030
     FM291400 17005KT P6SM SCT030 BKN250
     FM292000 21009KT P6SM BKN150
     FM292100 20009KT P6SM SCT040 BKN120
     FM300400 VRB03KT P6SM VCSH SCT040 OVC090=

USA.gov is the U.S. government's official web portal to all federal, state and local government web resources and services.